createdAt,value
2022-08-10T00:03:10.342Z,23.50
2022-08-10T00:07:13.269Z,23.60
2022-08-10T00:11:16.750Z,23.70
2022-08-10T00:15:52.024Z,23.80
2022-08-10T00:20:03.062Z,23.90
2022-08-10T00:24:08.038Z,24.00
2022-08-10T00:28:11.101Z,24.00
2022-08-10T00:32:13.865Z,24.10
2022-08-10T00:36:16.722Z,24.10
2022-08-10T00:40:19.661Z,24.10
2022-08-10T00:44:46.166Z,24.10
2022-08-10T00:49:00.421Z,23.90
2022-08-10T00:53:03.669Z,23.70
2022-08-10T00:57:16.809Z,23.50
2022-08-10T01:02:07.261Z,23.40
2022-08-10T01:06:16.372Z,23.30
2022-08-10T01:10:44.081Z,23.10
2022-08-10T01:15:07.585Z,22.90
2022-08-10T01:19:58.539Z,22.70
2022-08-10T01:24:25.228Z,22.50
2022-08-10T01:28:59.163Z,22.40
2022-08-10T01:33:10.232Z,22.30
2022-08-10T01:37:16.216Z,22.20
2022-08-10T01:41:46.732Z,22.20
2022-08-10T01:45:54.325Z,22.20
2022-08-10T01:50:04.483Z,22.20
2022-08-10T01:54:13.451Z,22.10
2022-08-10T01:58:19.129Z,22.00
2022-08-10T02:02:23.599Z,22.00
2022-08-10T02:06:28.977Z,22.00
2022-08-10T02:10:33.708Z,21.90
2022-08-10T02:14:52.302Z,21.90
2022-08-10T02:18:57.691Z,21.90
2022-08-10T02:23:06.513Z,21.80
2022-08-10T02:27:11.585Z,21.80
2022-08-10T02:31:18.382Z,21.60
2022-08-10T02:35:26.866Z,21.70
2022-08-10T02:39:36.361Z,21.80
2022-08-10T02:45:18.527Z,21.90
2022-08-10T02:48:49.152Z,22.00
2022-08-10T02:53:56.609Z,22.00
2022-08-10T02:58:12.745Z,22.00
2022-08-10T03:02:06.872Z,22.10
2022-08-10T03:06:15.854Z,22.20
2022-08-10T03:10:41.381Z,22.30
2022-08-10T03:14:46.243Z,22.30
2022-08-10T03:18:50.079Z,22.40
2022-08-10T03:22:54.836Z,22.50
2022-08-10T03:26:59.178Z,22.60
2022-08-10T03:31:02.905Z,22.80
2022-08-10T03:35:07.978Z,22.90
2022-08-10T03:39:11.809Z,22.90
2022-08-10T03:43:20.029Z,23.00
2022-08-10T03:47:24.920Z,23.00
2022-08-10T03:51:28.093Z,23.10
2022-08-10T03:56:28.332Z,23.20
2022-08-10T03:59:54.849Z,23.20
2022-08-10T04:04:11.526Z,23.30
2022-08-10T04:08:16.736Z,23.40
2022-08-10T04:12:20.425Z,23.40
2022-08-10T04:16:23.260Z,23.50
2022-08-10T04:20:34.302Z,23.50
2022-08-10T04:24:39.990Z,23.40
2022-08-10T04:28:43.919Z,23.30
2022-08-10T04:32:50.218Z,23.10
2022-08-10T04:36:57.999Z,23.00
2022-08-10T04:41:01.720Z,22.80
2022-08-10T04:45:11.965Z,22.60
2022-08-10T04:49:54.782Z,22.50
2022-08-10T04:54:04.246Z,22.50
2022-08-10T04:58:00.868Z,22.40
2022-08-10T05:02:30.404Z,22.30
2022-08-10T05:06:27.608Z,22.30
2022-08-10T05:10:30.399Z,22.30
2022-08-10T05:14:35.361Z,22.40
2022-08-10T05:18:38.064Z,22.40
2022-08-10T05:22:44.719Z,22.40
2022-08-10T05:27:00.242Z,22.40
2022-08-10T05:31:10.645Z,22.50
2022-08-10T05:35:18.535Z,22.50
2022-08-10T05:39:28.728Z,22.70
2022-08-10T05:43:35.891Z,22.80
2022-08-10T05:48:41.853Z,23.10
2022-08-10T05:52:05.463Z,23.40
2022-08-10T05:56:09.198Z,23.70
2022-08-10T06:00:37.451Z,23.90
2022-08-10T06:04:41.134Z,24.20
2022-08-10T06:08:46.422Z,24.50
2022-08-10T06:13:19.402Z,24.80
2022-08-10T06:17:33.810Z,25.10
2022-08-10T06:21:37.282Z,25.40
2022-08-10T06:26:08.378Z,25.50
2022-08-10T06:30:04.730Z,25.70
2022-08-10T06:34:33.467Z,25.90
2022-08-10T06:38:38.806Z,26.20
2022-08-10T06:42:46.671Z,26.50
2022-08-10T06:46:52.875Z,26.60
2022-08-10T06:51:01.646Z,26.80
2022-08-10T06:55:08.438Z,26.80
2022-08-10T06:59:21.892Z,26.90
2022-08-10T07:03:34.014Z,27.10
2022-08-10T07:07:40.964Z,27.30
2022-08-10T07:11:46.632Z,27.50
2022-08-10T07:15:59.493Z,27.70
2022-08-10T07:20:07.057Z,28.00
2022-08-10T07:24:14.805Z,28.10
2022-08-10T07:28:19.356Z,28.30
2022-08-10T07:32:24.547Z,28.40
2022-08-10T07:36:29.533Z,28.50
2022-08-10T07:40:35.065Z,28.60
2022-08-10T07:44:41.447Z,28.80
2022-08-10T07:48:51.061Z,29.00
2022-08-10T07:52:57.915Z,29.00
2022-08-10T07:57:05.023Z,29.20
2022-08-10T08:01:07.755Z,29.30
2022-08-10T08:05:13.667Z,29.30
2022-08-10T08:09:38.684Z,29.20
2022-08-10T08:14:02.067Z,29.40
2022-08-10T08:18:06.008Z,29.60
2022-08-10T08:24:09.035Z,29.60
2022-08-10T08:26:33.847Z,29.70
2022-08-10T08:30:39.161Z,29.60
2022-08-10T08:34:44.858Z,29.60
2022-08-10T08:38:48.784Z,29.70
2022-08-10T08:43:31.677Z,30.00
2022-08-10T08:48:03.255Z,30.10
2022-08-10T08:52:35.326Z,30.10
2022-08-10T08:57:01.592Z,30.00
2022-08-10T09:01:37.948Z,30.20
2022-08-10T09:06:07.253Z,30.30
2022-08-10T09:10:22.049Z,30.40
2022-08-10T09:14:35.897Z,30.30
2022-08-10T09:18:56.089Z,30.40
2022-08-10T09:24:04.171Z,30.60
2022-08-10T09:28:13.352Z,30.90
2022-08-10T09:36:15.667Z,31.00
2022-08-10T09:37:24.183Z,31.10
2022-08-10T09:42:28.647Z,31.30
2022-08-10T09:47:00.895Z,31.40
2022-08-10T09:51:44.768Z,31.30
2022-08-10T09:56:19.383Z,31.20
2022-08-10T10:00:23.410Z,31.20
2022-08-10T10:04:39.394Z,31.30
2022-08-10T10:08:58.633Z,31.30
2022-08-10T10:13:41.543Z,31.50
2022-08-10T10:18:03.006Z,31.50
2022-08-10T10:22:32.477Z,31.70
2022-08-10T10:26:57.145Z,31.80
2022-08-10T10:31:17.190Z,32.00
2022-08-10T10:35:46.285Z,31.90
2022-08-10T10:39:57.964Z,32.00
2022-08-10T10:44:24.981Z,32.10
2022-08-10T10:48:29.300Z,32.20
2022-08-10T10:52:43.199Z,32.50
2022-08-10T10:56:59.992Z,32.70
2022-08-10T11:01:20.994Z,32.80
2022-08-10T11:05:36.123Z,32.70
2022-08-10T11:10:05.433Z,32.70
2022-08-10T11:14:29.566Z,32.80
2022-08-10T11:18:33.940Z,33.00
2022-08-10T11:22:42.689Z,32.90
2022-08-10T11:27:02.434Z,32.70
2022-08-10T11:31:23.977Z,32.80
2022-08-10T11:35:34.984Z,33.00
2022-08-10T11:39:48.546Z,32.90
2022-08-10T11:44:03.299Z,32.90
2022-08-10T11:48:53.461Z,33.00
2022-08-10T11:53:18.971Z,33.00
2022-08-10T11:57:54.621Z,33.10
2022-08-10T12:01:53.474Z,33.40
2022-08-10T12:05:58.638Z,33.50
2022-08-10T12:10:13.152Z,33.50
2022-08-10T12:14:41.073Z,33.50
2022-08-10T12:18:55.889Z,33.40
2022-08-10T12:23:11.881Z,33.50
2022-08-10T12:27:26.727Z,33.40
2022-08-10T12:31:54.403Z,33.50
2022-08-10T12:36:18.709Z,33.70
2022-08-10T12:40:37.042Z,33.80
2022-08-10T12:44:50.196Z,33.80
2022-08-10T12:49:20.237Z,34.00
2022-08-10T12:53:41.133Z,34.10
2022-08-10T12:57:44.112Z,34.10
2022-08-10T13:02:10.016Z,34.00
2022-08-10T13:06:15.217Z,34.00
2022-08-10T13:10:18.358Z,34.20
2022-08-10T13:14:35.049Z,34.10
2022-08-10T13:18:44.070Z,34.00
2022-08-10T13:22:49.836Z,34.00
2022-08-10T13:27:24.792Z,34.00
2022-08-10T13:31:22.313Z,33.90
2022-08-10T13:35:46.033Z,33.70
2022-08-10T13:39:57.690Z,33.90
2022-08-10T13:44:03.191Z,34.10
2022-08-10T13:48:18.525Z,34.10
2022-08-10T13:52:26.915Z,34.10
2022-08-10T13:56:31.920Z,34.00
2022-08-10T14:00:38.724Z,34.20
2022-08-10T14:04:46.709Z,34.20
2022-08-10T14:08:57.072Z,34.30
2022-08-10T14:13:03.470Z,34.40
2022-08-10T14:17:08.094Z,34.20
2022-08-10T14:21:12.023Z,34.50
2022-08-10T14:25:15.892Z,34.40
2022-08-10T14:29:21.342Z,34.40
2022-08-10T14:33:25.220Z,34.30
2022-08-10T14:37:38.338Z,34.30
2022-08-10T14:42:01.713Z,34.40
2022-08-10T14:46:11.824Z,34.20
2022-08-10T14:50:32.497Z,34.30
2022-08-10T14:54:36.792Z,34.30
2022-08-10T14:59:05.325Z,34.40
2022-08-10T15:03:10.842Z,34.40
2022-08-10T15:07:32.736Z,34.50
2022-08-10T15:12:14.861Z,34.50
2022-08-10T15:16:12.631Z,34.50
2022-08-10T15:20:20.765Z,34.70
2022-08-10T15:24:57.518Z,34.70
2022-08-10T15:29:23.950Z,34.80
2022-08-10T15:34:07.350Z,34.50
2022-08-10T15:38:16.795Z,34.60
2022-08-10T15:42:22.958Z,34.50
2022-08-10T15:46:45.740Z,34.70
2022-08-10T15:50:54.927Z,35.20
2022-08-10T15:55:41.057Z,35.30
2022-08-10T15:59:53.530Z,35.00
2022-08-10T16:04:08.279Z,34.60
2022-08-10T16:08:17.101Z,34.40
2022-08-10T16:12:40.534Z,34.70
2022-08-10T16:16:49.143Z,34.90
2022-08-10T16:20:55.552Z,35.80
2022-08-10T16:25:00.686Z,36.60
2022-08-10T16:29:55.919Z,37.10
2022-08-10T16:34:03.343Z,37.50
2022-08-10T16:38:11.466Z,37.60
2022-08-10T16:42:22.068Z,37.50
2022-08-10T16:46:27.266Z,37.80
2022-08-10T16:50:39.463Z,38.10
2022-08-10T16:54:47.216Z,38.20
2022-08-10T16:58:56.485Z,38.30
2022-08-10T17:04:04.747Z,38.40
2022-08-10T17:07:35.808Z,38.80
2022-08-10T17:11:41.527Z,38.80
2022-08-10T17:15:50.848Z,38.70
2022-08-10T17:20:31.834Z,38.60
2022-08-10T17:24:40.519Z,38.50
2022-08-10T17:28:49.713Z,38.40
2022-08-10T17:32:57.147Z,38.40
2022-08-10T17:37:04.592Z,37.40
2022-08-10T17:41:12.661Z,36.90
2022-08-10T17:45:47.700Z,36.50
2022-08-10T17:49:45.533Z,35.80
2022-08-10T17:53:52.039Z,34.50
2022-08-10T17:58:01.583Z,33.40
2022-08-10T18:02:11.869Z,32.60
2022-08-10T18:06:15.951Z,32.00
2022-08-10T18:10:21.637Z,31.40
2022-08-10T18:14:30.175Z,30.90
2022-08-10T18:18:34.513Z,30.50
2022-08-10T18:22:42.851Z,30.10
2022-08-10T18:26:50.169Z,29.80
2022-08-10T18:30:55.593Z,29.50
2022-08-10T18:35:02.801Z,29.10
2022-08-10T18:39:06.140Z,28.80
2022-08-10T18:44:05.834Z,28.50
2022-08-10T18:47:39.437Z,28.20
2022-08-10T18:52:04.680Z,28.00
2022-08-10T18:56:33.774Z,27.80
2022-08-10T19:01:04.517Z,27.60
2022-08-10T19:05:29.999Z,27.40
2022-08-10T19:10:14.183Z,27.30
2022-08-10T19:14:25.688Z,27.10
2022-08-10T19:18:31.234Z,27.00
2022-08-10T19:23:15.546Z,26.80
2022-08-10T19:27:33.126Z,26.70
2022-08-10T19:32:00.004Z,26.60
2022-08-10T19:36:52.278Z,26.50
2022-08-10T19:41:09.934Z,26.50
2022-08-10T19:46:01.355Z,26.30
2022-08-10T19:50:15.986Z,26.30
2022-08-10T19:54:26.082Z,26.20
2022-08-10T19:58:44.101Z,26.20
2022-08-10T20:02:57.207Z,26.10
2022-08-10T20:07:19.345Z,26.10
2022-08-10T20:11:44.442Z,26.00
2022-08-10T20:16:06.125Z,26.00
2022-08-10T20:20:13.737Z,26.00
2022-08-10T20:24:56.078Z,25.90
2022-08-10T20:29:16.379Z,25.80
2022-08-10T20:34:04.132Z,25.80
2022-08-10T20:38:29.017Z,25.80
2022-08-10T20:42:58.527Z,25.60
2022-08-10T20:47:38.363Z,25.50
2022-08-10T20:52:02.320Z,25.40
2022-08-10T20:56:21.622Z,25.20
2022-08-10T21:00:37.540Z,25.20
2022-08-10T21:04:59.939Z,25.00
2022-08-10T21:09:47.433Z,24.80
2022-08-10T21:14:05.505Z,24.70
2022-08-10T21:18:43.920Z,24.50
2022-08-10T21:22:49.602Z,24.40
2022-08-10T21:26:55.594Z,24.30
2022-08-10T21:31:13.625Z,24.30
2022-08-10T21:35:36.581Z,24.30
2022-08-10T21:40:34.538Z,24.20
2022-08-10T21:45:57.832Z,24.20
2022-08-10T21:50:17.043Z,24.20
2022-08-10T21:54:46.996Z,24.10
2022-08-10T21:59:12.686Z,24.10
2022-08-10T22:03:39.396Z,24.10
2022-08-10T22:08:08.194Z,24.10
2022-08-10T22:12:38.027Z,24.20
2022-08-10T22:17:59.829Z,24.10
2022-08-10T22:22:27.390Z,24.10
2022-08-10T22:27:46.593Z,24.10
2022-08-10T22:32:22.101Z,24.10
2022-08-10T22:37:31.054Z,24.10
2022-08-10T22:42:14.375Z,24.10
2022-08-10T22:46:49.245Z,24.00
2022-08-10T22:50:56.919Z,24.00
2022-08-10T22:55:34.933Z,24.00
2022-08-10T22:59:38.062Z,24.10
2022-08-10T23:03:51.525Z,24.10
2022-08-10T23:07:58.362Z,24.10
2022-08-10T23:12:09.661Z,24.10
2022-08-10T23:16:37.656Z,24.10
2022-08-10T23:20:43.008Z,24.10
2022-08-10T23:25:04.704Z,24.10
2022-08-10T23:29:13.096Z,24.10
2022-08-10T23:33:17.622Z,24.10
2022-08-10T23:37:42.488Z,24.10
2022-08-10T23:41:52.809Z,24.00
2022-08-10T23:45:59.883Z,24.00
2022-08-10T23:50:05.686Z,23.90
2022-08-10T23:54:14.235Z,23.90
2022-08-10T23:58:30.314Z,23.90
